EGPO Airport Information

Runway Information
Runway 06 Length 3281 ft width 75 ft
Elevation 26 ft Threshold ft Heading 60
Runway 24 Length 3281 ft Width 75 ft
Elevation 21 ft Threshold ft Heading 240
Runway 18 Length 7218 ft width 151 ft
Elevation 16 ft Threshold 394 ft Heading 174
Runway 36 Length 7218 ft Width 151 ft
Elevation 15 ft Threshold ft Heading 354
Airport Frequencies
Type AFIS Name AFIS Frequency 123.5 MHZ
Type APP Name APP Frequency 123.5 MHZ
Type ATIS Name ATIS Frequency 115.1 MHZ
Type TWR Name TWR Frequency 123.5 MHZ
Airport Navaids
Type NDB-DME Name Stornoway Frequency 431 KHZ
Type VOR-DME Name Stornoway Frequency 115100 KHZ
Airport Weather Information & NOTAM
ADDS - METARS form results

(0831 UTC 01 October 2022)
Data provider http://aviationweather.gov/metar/data/
 
METAR text: EGPO 010820Z 23013KT 9999 VCSH FEW015CB SCT030 11/08 Q0989
Conditions at: EGPO (STORNOWAY , GB) observed 0820 UTC 01 October 2022
Temperature: 11.0°C (52°F)
Dewpoint: 8.0°C (46°F) [RH = 82%]
Pressure (altimeter): 29.20 inches Hg (989.0 mb)
Winds: from the SW (230 degrees) at 15 MPH (13 knots; 6.7 m/s)
Visibility: 6 or more miles (10+ km)
Ceiling: at least 12,000 feet AGL
Clouds: few clouds at 1500 feet AGL
scattered clouds at 3000 feet AGL
Weather: VCSH  (showers in vicinity)

METAR text: EGPO 010750Z 25013KT 9999 VCSH FEW020CB SCT041 11/08 Q0988
Conditions at: EGPO (STORNOWAY , GB) observed 0750 UTC 01 October 2022
Temperature: 11.0°C (52°F)
Dewpoint: 8.0°C (46°F) [RH = 82%]
Pressure (altimeter): 29.17 inches Hg (988.0 mb)
Winds: from the WSW (250 degrees) at 15 MPH (13 knots; 6.7 m/s)
Visibility: 6 or more miles (10+ km)
Ceiling: at least 12,000 feet AGL
Clouds: few clouds at 2000 feet AGL
scattered clouds at 4100 feet AGL
Weather: VCSH  (showers in vicinity)

Forecast for: EGPO (STORNOWAY , GB)
Text: TAF EGPO 010801Z 0109/0118 24014KT 9999 FEW015 SCT020
Forecast period: 0900 to 1800 UTC 01 October 2022
Forecast type: FROM: standard forecast or significant change
Winds: from the WSW (240 degrees) at 16 MPH (14 knots; 7.2 m/s)
Visibility: 6 or more miles (10+ km)
Ceiling: at least 12,000 feet AGL
Clouds: few clouds at 1500 feet AGL
scattered clouds at 2000 feet AGL
Weather: no significant weather forecast for this period
Text: TEMPO 0109/0118 5000 SHRA BKN014
Forecast period: 0900 to 1800 UTC 01 October 2022
Forecast type: TEMPORARY: The following changes expected for less than half the time period
Visibility: 3 miles (5 km)
Ceiling: 1400 feet AGL
Clouds: broken clouds at 1400 feet AGL
Weather: SHRA  (rain showers)
Text: PROB40
Forecast period: 0900 to 1800 UTC 01 October 2022
Forecast type: TEMPORARY: The following changes expected for less than half the time period
Winds: from the WSW (250 degrees) at 22 MPH (19 knots; 9.8 m/s)
gusting to 34 MPH (30 knots; 15.4 m/s)
Visibility: 1.24 miles (2.00 km)
Ceiling: 800 feet AGL
Clouds: broken clouds at 800 feet AGL
Weather: +SHRA  (heavy rain showers)